Cosco Belgium — VRLT8 — position and weather

sailwx.info

Track history (hours):
 
Tides and Currents Weather Stations Pressure Air Temp Water Temp Dewpoint Dewpoint Depression Visibility Wind Speed Wind Dir Waves Ship Positions

Cosco Belgium

Last reported at 2018-Jun-19 07:44 UTC. Time now 2018-Jun-19 10:31 UTC.
Position N 36°37' W 129°58'.

Length 366 m; draft 10.2 m.

Type: Ship (hazmat cat A). MMSI: 477427500.

Date/timePositionNaut miles runAvg speedWind from/ knotsBaromVisibWave heightAir tempDewpointWater temp
2018-Jun-19 07:44N 36°37' W 129°58'1417.9
2018-Jun-19 06:57N 36°30' W 129°42'1417.8
2018-Jun-19 06:11N 36°23' W 129°28'317.9
2018-Jun-19 06:00N 36°21' W 129°24'2217.8
2018-Jun-19 04:45N 36°10' W 129°01'31216.8
2018-Jun-18 10:15N 34°26' W 123°01'917.9
2018-Jun-18 09:44N 34°26' W 122°50'417.8
2018-Jun-18 09:30N 34°25' W 122°45'2417.7
2018-Jun-18 08:08N 34°25' W 122°15'217.7
2018-Jun-18 08:00N 34°25' W 122°12'917.5
2018-Jun-18 07:30N 34°26' W 122°02'917.7
2018-Jun-18 07:00N 34°26' W 121°51'917.9
2018-Jun-18 06:30N 34°26' W 121°40'917.8
2018-Jun-18 06:00N 34°26' W 121°30'917.5
2018-Jun-18 05:30N 34°26' W 121°19'917.5
2018-Jun-18 05:00N 34°26' W 121°08'510.6
2018-Jun-18 04:30N 34°26' W 121°02'5 9.2
2018-Jun-18 04:00N 34°26' W 120°56'5 9.1
2018-Jun-18 03:30N 34°26' W 120°51'5 9.4
2018-Jun-18 03:00N 34°25' W 120°45'5 9.5
2018-Jun-18 02:26N 34°23' W 120°39'5 9.4
2018-Jun-18 01:56N 34°22' W 120°33'410.0
2018-Jun-18 01:30N 34°21' W 120°28'510.3
2018-Jun-18 00:58N 34°19' W 120°22'5 9.9
2018-Jun-18 00:30N 34°18' W 120°16'5 9.9
2018-Jun-18 00:00N 34°17' W 120°11'5 9.9
2018-Jun-17 23:29N 34°16' W 120°05'5 9.8
2018-Jun-17 23:00N 34°14' W 119°59'5 9.9
2018-Jun-17 22:27N 34°13' W 119°53'5 9.6
2018-Jun-17 21:58N 34°12' W 119°48'5 9.5
2018-Jun-17 21:27N 34°10' W 119°42'5 9.5
2018-Jun-17 20:59N 34°09' W 119°37'5 9.5
2018-Jun-17 20:29N 34°08' W 119°31'5 9.8
2018-Jun-17 20:00N 34°07' W 119°26'510.1
2018-Jun-17 19:30N 34°05' W 119°20'5 9.9
2018-Jun-17 19:00N 34°04' W 119°14'510.5
2018-Jun-17 18:30N 34°01' W 119°09'510.3
2018-Jun-17 17:58N 33°58' W 119°03'510.1
2018-Jun-17 17:29N 33°56' W 118°58'510.2
2018-Jun-17 17:00N 33°53' W 118°53'510.3
2018-Jun-17 16:30N 33°51' W 118°47'510.6
2018-Jun-17 16:00N 33°48' W 118°42'510.5
2018-Jun-17 15:30N 33°46' W 118°36'510.5
2018-Jun-17 15:00N 33°43' W 118°31'510.6
2018-Jun-17 14:30N 33°40' W 118°25'510.0
2018-Jun-17 13:59N 33°38' W 118°19'510.2
2018-Jun-17 13:30N 33°38' W 118°14'4 8.2
2018-Jun-17 13:00N 33°42' W 118°11'2 4.3
2018-Jun-17 12:30N 33°44' W 118°11'0 0.8
2018-Jun-17 12:00N 33°44' W 118°11'0 0.0
2018-Jun-17 11:29N 33°44' W 118°11'0 0.0
2018-Jun-17 10:59N 33°44' W 118°11'0 0.0
2018-Jun-17 10:26N 33°44' W 118°11'0 0.0
2018-Jun-17 09:59N 33°44' W 118°11'0 0.0
2018-Jun-17 09:29N 33°44' W 118°11'0 0.0
2018-Jun-17 08:59N 33°44' W 118°11'0 0.0
2018-Jun-17 08:29N 33°44' W 118°11'0 0.0
2018-Jun-17 07:59N 33°44' W 118°11'0 0.0
2018-Jun-17 07:29N 33°44' W 118°11'0 0.0
2018-Jun-17 06:59N 33°44' W 118°11'0 0.0
2018-Jun-17 06:29N 33°44' W 118°11'0 0.0
2018-Jun-17 05:59N 33°44' W 118°11'0 0.0
2018-Jun-17 05:29N 33°44' W 118°11'0 0.0
2018-Jun-17 04:59N 33°44' W 118°11'0 0.0
2018-Jun-17 04:29N 33°44' W 118°11'0 0.0
2018-Jun-17 03:59N 33°44' W 118°11'0 0.0
2018-Jun-17 03:29N 33°44' W 118°11'0 0.0
2018-Jun-17 02:59N 33°44' W 118°11'0 0.0
2018-Jun-17 02:29N 33°44' W 118°11'0 0.0
2018-Jun-17 01:59N 33°44' W 118°11'0 0.0
2018-Jun-17 01:29N 33°44' W 118°11'0 0.0
2018-Jun-17 00:56N 33°44' W 118°11'0 0.0
2018-Jun-17 00:29N 33°44' W 118°11'0 0.0
2018-Jun-16 23:59N 33°44' W 118°11'0 0.0
2018-Jun-16 23:29N 33°44' W 118°11'0 0.0
2018-Jun-16 22:59N 33°44' W 118°11'0 0.0
2018-Jun-16 22:29N 33°44' W 118°11'0 0.0
2018-Jun-16 21:59N 33°44' W 118°11'0 0.0
2018-Jun-16 21:26N 33°44' W 118°11'0 0.0
2018-Jun-16 20:59N 33°44' W 118°11'0 0.0
2018-Jun-16 20:29N 33°44' W 118°11'0 0.0
2018-Jun-16 19:59N 33°44' W 118°11'0 0.0
2018-Jun-16 19:29N 33°44' W 118°11'0 0.0
2018-Jun-16 18:59N 33°44' W 118°11'0 0.0
2018-Jun-16 18:29N 33°44' W 118°11'0 0.0
2018-Jun-16 17:59N 33°44' W 118°11'0 0.0
2018-Jun-16 17:26N 33°44' W 118°11'0 0.0
2018-Jun-16 16:59N 33°44' W 118°11'0 0.0
2018-Jun-16 16:29N 33°44' W 118°11'0 0.0
2018-Jun-16 15:59N 33°44' W 118°11'0 0.0
2018-Jun-16 15:29N 33°44' W 118°11'0 0.0
2018-Jun-16 14:59N 33°44' W 118°11'0 0.0
2018-Jun-16 14:29N 33°44' W 118°11'0 0.0
2018-Jun-16 13:59N 33°44' W 118°11'0 0.0
2018-Jun-16 13:29N 33°44' W 118°11'0 0.0
2018-Jun-16 12:59N 33°44' W 118°11'0 0.0
2018-Jun-16 12:29N 33°44' W 118°11'0 0.0
2018-Jun-16 11:59N 33°44' W 118°11'0 0.0
2018-Jun-16 11:29N 33°44' W 118°11'0 0.0
2018-Jun-16 10:59N 33°44' W 118°11'0 0.0
2018-Jun-16 10:29N 33°44' W 118°11'0 0.0
2018-Jun-16 09:59N 33°44' W 118°11'0 0.0
2018-Jun-16 09:29N 33°44' W 118°11'0 0.0
2018-Jun-16 08:56N 33°44' W 118°11'0 0.0
2018-Jun-16 08:29N 33°44' W 118°11'0 0.0
2018-Jun-16 07:59N 33°44' W 118°11'0 0.0
2018-Jun-16 07:29N 33°44' W 118°11'0 0.0
2018-Jun-16 06:59N 33°44' W 118°11'0 0.0
2018-Jun-16 06:29N 33°44' W 118°11'0 0.0
2018-Jun-16 05:59N 33°44' W 118°11'0 0.0
2018-Jun-16 05:29N 33°44' W 118°11'0 0.0
2018-Jun-16 04:59N 33°44' W 118°11'0 0.0
2018-Jun-16 04:29N 33°44' W 118°11'0 0.0
2018-Jun-16 03:59N 33°44' W 118°11'0 0.0
2018-Jun-16 03:29N 33°44' W 118°11'0 0.0
2018-Jun-16 02:59N 33°44' W 118°11'0 0.0
2018-Jun-16 02:29N 33°44' W 118°11'0 0.0
2018-Jun-16 01:59N 33°44' W 118°11'0 0.0
2018-Jun-16 01:29N 33°44' W 118°11'0 0.0
2018-Jun-16 00:59N 33°44' W 118°11'0 0.1
2018-Jun-16 00:29N 33°44' W 118°12'0 0.0
2018-Jun-15 23:59N 33°44' W 118°12'0 0.1
2018-Jun-15 23:29N 33°44' W 118°11'0 0.0
2018-Jun-15 22:59N 33°44' W 118°11'0 0.0
2018-Jun-15 22:29N 33°44' W 118°11'0 0.0
2018-Jun-15 21:59N 33°44' W 118°11'0 0.0
2018-Jun-15 21:29N 33°44' W 118°11'0 0.0
2018-Jun-15 20:59N 33°44' W 118°11'0 0.1
2018-Jun-15 20:29N 33°44' W 118°12'0 0.1
2018-Jun-15 19:59N 33°44' W 118°11'0 0.0
2018-Jun-15 19:29N 33°44' W 118°11'0 0.0
2018-Jun-15 18:59N 33°44' W 118°11'0 0.0
2018-Jun-15 18:29N 33°44' W 118°11'0 0.0
2018-Jun-15 17:38N 33°44' W 118°11'0 0.0
2018-Jun-15 17:29N 33°44' W 118°11'0 0.0
2018-Jun-15 16:59N 33°44' W 118°11'0 0.1
2018-Jun-15 16:29N 33°44' W 118°12'0 0.1
2018-Jun-15 15:59N 33°44' W 118°11'0 0.0
2018-Jun-15 15:29N 33°44' W 118°11'0 0.0
2018-Jun-15 14:59N 33°44' W 118°11'0 0.0
2018-Jun-15 14:29N 33°44' W 118°11'0 0.0
2018-Jun-15 13:59N 33°44' W 118°11'0 0.0
2018-Jun-15 13:29N 33°44' W 118°11'0 0.0
2018-Jun-15 12:59N 33°44' W 118°11'0 0.0
2018-Jun-15 12:29N 33°44' W 118°11'0 0.0
2018-Jun-15 11:59N 33°44' W 118°11'0 0.0
2018-Jun-15 11:29N 33°44' W 118°11'0 0.0
2018-Jun-15 10:59N 33°44' W 118°11'0 0.0
2018-Jun-15 10:29N 33°44' W 118°11'0 0.0
2018-Jun-15 09:59N 33°44' W 118°11'0 0.0
2018-Jun-15 09:29N 33°44' W 118°11'0 0.0
2018-Jun-15 08:59N 33°44' W 118°11'0 0.0
2018-Jun-15 08:29N 33°44' W 118°11'0 0.0
2018-Jun-15 07:59N 33°44' W 118°11'0 0.0
2018-Jun-15 07:23N 33°44' W 118°11'0 0.0
2018-Jun-15 06:59N 33°44' W 118°11'0 0.0
2018-Jun-15 06:23N 33°44' W 118°11'0 0.0
2018-Jun-15 05:59N 33°44' W 118°11'0 0.0
2018-Jun-15 05:29N 33°44' W 118°11'0 0.0
2018-Jun-15 04:59N 33°44' W 118°11'0 0.0
2018-Jun-15 04:26N 33°44' W 118°11'0 0.0
2018-Jun-15 03:59N 33°44' W 118°11'0 0.0
2018-Jun-15 03:29N 33°44' W 118°11'0 0.0
2018-Jun-15 02:59N 33°44' W 118°11'0 0.0
2018-Jun-15 02:29N 33°44' W 118°11'0 0.0
2018-Jun-15 01:59N 33°44' W 118°11'0 0.0
2018-Jun-15 01:29N 33°44' W 118°11'0 0.0
2018-Jun-15 00:56N 33°44' W 118°11'0 0.0
2018-Jun-15 00:29N 33°44' W 118°11'0 0.0
2018-Jun-14 23:59N 33°44' W 118°11'0 0.0
2018-Jun-14 23:29N 33°44' W 118°11'0 0.0
2018-Jun-14 22:59N 33°44' W 118°11'0 0.0
2018-Jun-14 22:29N 33°44' W 118°11'0 0.0
2018-Jun-14 21:59N 33°44' W 118°11'0 0.0
2018-Jun-14 21:29N 33°44' W 118°11'0 0.0
2018-Jun-14 20:59N 33°44' W 118°11'0 0.1
2018-Jun-14 20:29N 33°44' W 118°12'0 0.1
2018-Jun-14 19:59N 33°44' W 118°11'0 0.0
2018-Jun-14 19:29N 33°44' W 118°11'0 0.0
2018-Jun-14 18:59N 33°44' W 118°11'0 0.0
2018-Jun-14 18:29N 33°44' W 118°11'0 0.0
2018-Jun-14 17:59N 33°44' W 118°11'0 0.0
2018-Jun-14 17:29N 33°44' W 118°11'0 0.0
2018-Jun-14 16:59N 33°44' W 118°11'0 0.0
2018-Jun-14 16:29N 33°44' W 118°11'0 0.0
2018-Jun-14 15:59N 33°44' W 118°11'0 0.0
2018-Jun-14 15:29N 33°44' W 118°11'0 0.0
2018-Jun-14 14:59N 33°44' W 118°11'0 0.0
2018-Jun-14 14:29N 33°44' W 118°11'0 0.0
2018-Jun-14 13:59N 33°44' W 118°11'0 0.0
2018-Jun-14 13:29N 33°44' W 118°11'0 0.0
2018-Jun-14 12:59N 33°44' W 118°11'0 0.0
2018-Jun-14 12:29N 33°44' W 118°11'0 0.1
2018-Jun-14 11:59N 33°44' W 118°12'0 0.1
2018-Jun-14 11:29N 33°44' W 118°11'0 0.0
2018-Jun-14 10:59N 33°44' W 118°11'0 0.0
2018-Jun-14 10:29N 33°44' W 118°11'0 0.0
2018-Jun-14 09:59N 33°44' W 118°11'0 0.0
2018-Jun-14 09:29N 33°44' W 118°11'0 0.0
2018-Jun-14 08:59N 33°44' W 118°11'0 0.0
2018-Jun-14 08:29N 33°44' W 118°11'0 0.0
2018-Jun-14 07:59N 33°44' W 118°11'0 0.0
2018-Jun-14 07:29N 33°44' W 118°11'0 0.0
2018-Jun-14 06:59N 33°44' W 118°11'0 0.0
2018-Jun-14 06:29N 33°44' W 118°11'0 0.0
2018-Jun-14 05:59N 33°44' W 118°11'0 0.0
2018-Jun-14 05:26N 33°44' W 118°11'0 0.0
2018-Jun-14 04:59N 33°44' W 118°11'0 0.0
2018-Jun-14 04:29N 33°44' W 118°11'0 0.0
2018-Jun-14 03:53N 33°44' W 118°11'0 0.0
2018-Jun-14 03:29N 33°44' W 118°11'0 0.0
2018-Jun-14 02:56N 33°44' W 118°11'0 0.0
2018-Jun-14 02:29N 33°44' W 118°11'0 0.0
2018-Jun-14 01:59N 33°44' W 118°11'0 0.0
2018-Jun-14 01:29N 33°44' W 118°11'0 0.0
2018-Jun-14 00:59N 33°44' W 118°11'0 0.0
2018-Jun-14 00:29N 33°44' W 118°11'0 0.0
2018-Jun-13 23:59N 33°44' W 118°11'0 0.0
2018-Jun-13 23:29N 33°44' W 118°11'0 0.0
2018-Jun-13 22:59N 33°44' W 118°11'0 0.0
2018-Jun-13 22:29N 33°44' W 118°11'0 0.0
2018-Jun-13 21:59N 33°44' W 118°11'0 0.0
2018-Jun-13 21:29N 33°44' W 118°11'0 0.0
2018-Jun-13 20:59N 33°44' W 118°11'0 0.0
2018-Jun-13 20:29N 33°44' W 118°11'0 0.0
2018-Jun-13 19:56N 33°44' W 118°11'0 0.0
2018-Jun-13 19:29N 33°44' W 118°11'0 0.0
2018-Jun-13 18:59N 33°44' W 118°11'0 0.0
2018-Jun-13 18:29N 33°44' W 118°11'0 0.0
2018-Jun-13 17:59N 33°44' W 118°11'0 0.0
2018-Jun-13 17:29N 33°44' W 118°11'0 0.0
2018-Jun-13 16:59N 33°44' W 118°11'0 0.0
2018-Jun-13 16:26N 33°44' W 118°11'0 0.0
2018-Jun-13 15:59N 33°44' W 118°11'0 0.0
2018-Jun-13 15:29N 33°44' W 118°11'0 0.0
2018-Jun-13 14:59N 33°44' W 118°11'0 0.0
2018-Jun-13 14:29N 33°44' W 118°11'0 0.0
2018-Jun-13 13:59N 33°44' W 118°11'0 0.0
2018-Jun-13 13:29N 33°44' W 118°11'0 0.0
2018-Jun-13 12:59N 33°44' W 118°11'0 0.0
2018-Jun-13 12:29N 33°44' W 118°11'0 0.0
2018-Jun-13 11:59N 33°44' W 118°11'0 0.0
2018-Jun-13 11:29N 33°44' W 118°11'0 0.0
2018-Jun-13 10:59N 33°44' W 118°11'0 0.0
2018-Jun-13 10:29N 33°44' W 118°11'0 0.0
2018-Jun-13 09:59N 33°44' W 118°11'0 0.0
2018-Jun-13 09:29N 33°44' W 118°11'0 0.0
2018-Jun-13 08:59N 33°44' W 118°11'0 0.0
2018-Jun-13 08:29N 33°44' W 118°11'0 0.0
2018-Jun-13 07:59N 33°44' W 118°11'0 0.0
2018-Jun-13 07:29N 33°44' W 118°11'0 0.0
2018-Jun-13 06:59N 33°44' W 118°11'0 0.0
2018-Jun-13 06:29N 33°44' W 118°11'0 0.0
2018-Jun-13 05:59N 33°44' W 118°11'0 0.0
2018-Jun-13 05:29N 33°44' W 118°11'0 0.0
2018-Jun-13 04:59N 33°44' W 118°11'0 0.0
2018-Jun-13 04:26N 33°44' W 118°11'0 0.0
2018-Jun-13 03:59N 33°44' W 118°11'0 0.0
2018-Jun-13 03:26N 33°44' W 118°11'0 0.0
2018-Jun-13 02:59N 33°44' W 118°11'0 0.0
2018-Jun-13 02:29N 33°44' W 118°11'0 0.0
2018-Jun-13 01:59N 33°44' W 118°11'0 0.1
2018-Jun-13 01:29N 33°44' W 118°12'0 0.1
2018-Jun-13 00:59N 33°44' W 118°11'0 0.0
2018-Jun-13 00:29N 33°44' W 118°11'0 0.0
2018-Jun-12 23:59N 33°44' W 118°11'0 0.0
2018-Jun-12 23:29N 33°44' W 118°11'0 0.0
2018-Jun-12 22:59N 33°44' W 118°11'0 0.0
2018-Jun-12 22:29N 33°44' W 118°11'0 0.0
2018-Jun-12 21:59N 33°44' W 118°11'0 0.0
2018-Jun-12 21:29N 33°44' W 118°11'0 0.0
2018-Jun-12 20:59N 33°44' W 118°11'0 0.0
2018-Jun-12 20:29N 33°44' W 118°11'0 0.0
2018-Jun-12 19:56N 33°44' W 118°11'0 0.0
2018-Jun-12 19:29N 33°44' W 118°11'0 0.0
2018-Jun-12 18:59N 33°44' W 118°11'0 0.0
2018-Jun-12 18:29N 33°44' W 118°11'0 0.0
2018-Jun-12 17:59N 33°44' W 118°11'0 0.0
2018-Jun-12 17:29N 33°44' W 118°11'0 0.0
2018-Jun-12 16:59N 33°44' W 118°11'0 0.0
2018-Jun-12 16:29N 33°44' W 118°11'0 0.0
2018-Jun-12 15:59N 33°44' W 118°11'0 0.0
2018-Jun-12 15:29N 33°44' W 118°11'0 0.0
2018-Jun-12 14:59N 33°44' W 118°11'0 0.0
2018-Jun-12 14:29N 33°44' W 118°11'0 0.0
2018-Jun-12 13:59N 33°44' W 118°11'0 0.0
2018-Jun-12 13:29N 33°44' W 118°11'0 0.0
2018-Jun-12 12:56N 33°44' W 118°11'0 0.0
2018-Jun-12 12:29N 33°44' W 118°11'0 0.0
2018-Jun-12 11:59N 33°44' W 118°11'0 0.0
2018-Jun-12 11:29N 33°44' W 118°11'0 0.0
2018-Jun-12 10:59N 33°44' W 118°11'0 0.0
2018-Jun-12 10:29N 33°44' W 118°11'0 0.0
2018-Jun-12 09:59N 33°44' W 118°11'0 0.1
2018-Jun-12 09:29N 33°44' W 118°12'0 0.1
2018-Jun-12 08:59N 33°44' W 118°11'0 0.0
2018-Jun-12 08:29N 33°44' W 118°11'0 0.1
2018-Jun-12 07:59N 33°44' W 118°12'0 0.1
2018-Jun-12 07:29N 33°44' W 118°11'0 0.1
2018-Jun-12 06:56N 33°44' W 118°12'0 0.1
2018-Jun-12 06:29N 33°44' W 118°11'0 0.1
2018-Jun-12 05:59N 33°44' W 118°12'0 0.1
2018-Jun-12 05:29N 33°44' W 118°11'0 0.0
2018-Jun-12 04:59N 33°44' W 118°11'0 0.1
2018-Jun-12 04:26N 33°44' W 118°12'0 0.0
2018-Jun-12 03:59N 33°44' W 118°12'0 0.0
2018-Jun-12 03:29N 33°44' W 118°12'0 0.1
2018-Jun-12 02:59N 33°44' W 118°11'0 0.1
2018-Jun-12 02:26N 33°44' W 118°12'0 0.0
2018-Jun-12 01:59N 33°44' W 118°12'0 0.1
2018-Jun-12 01:29N 33°44' W 118°11'0 0.1
2018-Jun-12 00:59N 33°44' W 118°12'0 0.1
2018-Jun-12 00:29N 33°44' W 118°11'0 0.0
2018-Jun-11 23:59N 33°44' W 118°11'0 0.1
2018-Jun-11 23:29N 33°44' W 118°12'0 0.0
2018-Jun-11 22:59N 33°44' W 118°12'0 0.0
2018-Jun-11 22:29N 33°44' W 118°12'0 0.0
2018-Jun-11 21:59N 33°44' W 118°12'0 0.0
2018-Jun-11 21:29N 33°44' W 118°12'0 0.0
2018-Jun-11 20:59N 33°44' W 118°12'0 0.0
2018-Jun-11 20:29N 33°44' W 118°12'0 0.1
2018-Jun-11 19:59N 33°44' W 118°11'0 0.0
2018-Jun-11 19:29N 33°44' W 118°11'0 0.0
2018-Jun-11 18:59N 33°44' W 118°11'0 0.0
2018-Jun-11 18:29N 33°44' W 118°11'0 0.1
2018-Jun-11 17:59N 33°44' W 118°12'0 0.0
2018-Jun-11 17:29N 33°44' W 118°12'0 0.1
2018-Jun-11 16:59N 33°44' W 118°11'0 0.1
2018-Jun-11 16:29N 33°44' W 118°12'0 0.0
2018-Jun-11 15:59N 33°44' W 118°12'0 0.1
2018-Jun-11 15:29N 33°44' W 118°11'0 0.0
2018-Jun-11 14:59N 33°44' W 118°11'0 0.0
2018-Jun-11 14:29N 33°44' W 118°11'0 0.0
2018-Jun-11 13:59N 33°44' W 118°11'0 0.0
2018-Jun-11 13:29N 33°44' W 118°11'0 0.0
2018-Jun-11 12:59N 33°44' W 118°11'0 0.0
2018-Jun-11 12:29N 33°44' W 118°11'0 0.1
2018-Jun-11 11:59N 33°44' W 118°12'0 0.1
2018-Jun-11 11:29N 33°44' W 118°11'0 0.0
2018-Jun-11 10:59N 33°44' W 118°11'0 0.0
2018-Jun-11 10:29N 33°44' W 118°11'0 0.0
2018-Jun-11 09:59N 33°44' W 118°11'0 0.0
2018-Jun-11 09:29N 33°44' W 118°11'0 0.0
2018-Jun-11 08:59N 33°44' W 118°11'0 0.0
2018-Jun-11 08:29N 33°44' W 118°11'0 0.0
2018-Jun-11 07:59N 33°44' W 118°11'0 0.0
2018-Jun-11 07:29N 33°44' W 118°11'0 0.0
2018-Jun-11 06:59N 33°44' W 118°11'0 0.0
2018-Jun-11 06:29N 33°44' W 118°11'0 0.0
2018-Jun-11 05:59N 33°44' W 118°11'0 0.1
2018-Jun-11 05:29N 33°44' W 118°12'0 0.1
2018-Jun-11 04:59N 33°44' W 118°11'0 0.0
2018-Jun-11 04:29N 33°44' W 118°11'0 0.1
2018-Jun-11 03:59N 33°44' W 118°12'0 0.0
2018-Jun-11 03:26N 33°44' W 118°12'0 0.0
2018-Jun-11 02:59N 33°44' W 118°12'0 0.1
2018-Jun-11 02:29N 33°44' W 118°11'0 0.1
2018-Jun-11 01:59N 33°44' W 118°12'0 0.1
2018-Jun-11 01:29N 33°44' W 118°11'0 0.0
2018-Jun-11 00:59N 33°44' W 118°11'0 0.1
2018-Jun-11 00:29N 33°44' W 118°12'0 0.0
2018-Jun-10 23:59N 33°44' W 118°12'0 0.1
2018-Jun-10 23:29N 33°44' W 118°11'0 0.0
2018-Jun-10 22:59N 33°44' W 118°11'0 0.0
2018-Jun-10 22:29N 33°44' W 118°11'0 0.0
2018-Jun-10 21:59N 33°44' W 118°11'0 0.0
2018-Jun-10 21:29N 33°44' W 118°11'0 0.0
2018-Jun-10 20:59N 33°44' W 118°11'0 0.0
2018-Jun-10 20:29N 33°44' W 118°11'0 0.0
2018-Jun-10 19:59N 33°44' W 118°11'0 0.1
2018-Jun-10 19:30N 33°44' W 118°11'1 1.2
2018-Jun-10 19:01N 33°44' W 118°11'3 5.8
2018-Jun-10 18:30N 33°41' W 118°11'4 8.8
2018-Jun-10 18:00N 33°37' W 118°13'4 8.7
2018-Jun-10 17:30N 33°36' W 118°18'4 8.5
2018-Jun-10 16:59N 33°37' W 118°23'4 9.3
2018-Jun-10 16:30N 33°39' W 118°28'5 9.2
2018-Jun-10 16:00N 33°42' W 118°32'6 9.4
2018-Jun-10 15:19N 33°45' W 118°39'3 9.6
2018-Jun-10 15:00N 33°46' W 118°42'5 9.6
2018-Jun-10 14:30N 33°49' W 118°47'9 9.5
2018-Jun-10 13:30N 33°53' W 118°57'5 9.4
2018-Jun-10 13:00N 33°56' W 119°02'5 9.6
2018-Jun-10 12:30N 33°58' W 119°07'5 9.8
2018-Jun-10 11:59N 34°01' W 119°12'5 9.2
2018-Jun-10 11:30N 34°02' W 119°17'6 9.6
2018-Jun-10 10:52N 34°04' W 119°24'4 9.3
2018-Jun-10 10:23N 34°06' W 119°30'4 9.4
2018-Jun-10 10:00N 34°07' W 119°34'5 9.7
2018-Jun-10 09:29N 34°08' W 119°40'5 9.5
2018-Jun-10 09:00N 34°09' W 119°45'5 9.5
2018-Jun-10 08:29N 34°10' W 119°51'5 9.8
2018-Jun-10 07:57N 34°11' W 119°57'510.2
2018-Jun-10 07:29N 34°13' W 120°02'510.0
2018-Jun-10 07:00N 34°14' W 120°08'6 9.7
2018-Jun-10 06:26N 34°16' W 120°14'5 9.6
2018-Jun-10 05:57N 34°17' W 120°20'510.1
2018-Jun-10 05:28N 34°18' W 120°25'5 9.6
2018-Jun-10 05:00N 34°19' W 120°31'6 9.8
2018-Jun-10 04:22N 34°21' W 120°38'410.0
2018-Jun-10 04:00N 34°22' W 120°42'5 9.6
2018-Jun-10 03:29N 34°23' W 120°48'510.0
2018-Jun-10 03:00N 34°25' W 120°54'5 9.8
2018-Jun-10 02:30N 34°25' W 120°59'5 9.6
2018-Jun-10 02:00N 34°25' W 121°05'510.0
2018-Jun-10 01:30N 34°24' W 121°11'1019.3
2018-Jun-10 01:00N 34°24' W 121°23'1019.3
2018-Jun-10 00:30N 34°25' W 121°35'1019.0
2018-Jun-09 23:57N 34°25' W 121°47'919.3
2018-Jun-09 23:30N 34°24' W 121°58'919.4
2018-Jun-09 23:00N 34°24' W 122°09'1019.4
2018-Jun-09 22:31N 34°25' W 122°21'1019.7
2018-Jun-09 22:00N 34°25' W 122°33'  
Track history (hours):
 
Tides and Currents Weather Stations Pressure Air Temp Water Temp Dewpoint Dewpoint Depression Visibility Wind Speed Wind Dir Waves Ship Positions

Cosco Belgium

Last reported at 2018-Jun-19 07:44 UTC. Time now 2018-Jun-19 10:31 UTC.
Position N 36°37' W 129°58'.

Length 366 m; draft 10.2 m.

Type: Ship (hazmat cat A). MMSI: 477427500.

Date/timePositionNaut miles runAvg speedWind from/ knotsBaromVisibWave heightAir tempDewpointWater temp
2018-Jun-19 07:44N 36°37' W 129°58'1417.9
2018-Jun-19 06:57N 36°30' W 129°42'1417.8
2018-Jun-19 06:11N 36°23' W 129°28'317.9
2018-Jun-19 06:00N 36°21' W 129°24'2217.8
2018-Jun-19 04:45N 36°10' W 129°01'31216.8
2018-Jun-18 10:15N 34°26' W 123°01'917.9
2018-Jun-18 09:44N 34°26' W 122°50'417.8
2018-Jun-18 09:30N 34°25' W 122°45'2417.7
2018-Jun-18 08:08N 34°25' W 122°15'217.7
2018-Jun-18 08:00N 34°25' W 122°12'917.5
2018-Jun-18 07:30N 34°26' W 122°02'917.7
2018-Jun-18 07:00N 34°26' W 121°51'917.9
2018-Jun-18 06:30N 34°26' W 121°40'917.8
2018-Jun-18 06:00N 34°26' W 121°30'917.5
2018-Jun-18 05:30N 34°26' W 121°19'917.5
2018-Jun-18 05:00N 34°26' W 121°08'510.6
2018-Jun-18 04:30N 34°26' W 121°02'5 9.2
2018-Jun-18 04:00N 34°26' W 120°56'5 9.1
2018-Jun-18 03:30N 34°26' W 120°51'5 9.4
2018-Jun-18 03:00N 34°25' W 120°45'5 9.5
2018-Jun-18 02:26N 34°23' W 120°39'5 9.4
2018-Jun-18 01:56N 34°22' W 120°33'410.0
2018-Jun-18 01:30N 34°21' W 120°28'510.3
2018-Jun-18 00:58N 34°19' W 120°22'5 9.9
2018-Jun-18 00:30N 34°18' W 120°16'5 9.9
2018-Jun-18 00:00N 34°17' W 120°11'5 9.9
2018-Jun-17 23:29N 34°16' W 120°05'5 9.8
2018-Jun-17 23:00N 34°14' W 119°59'5 9.9
2018-Jun-17 22:27N 34°13' W 119°53'5 9.6
2018-Jun-17 21:58N 34°12' W 119°48'5 9.5
2018-Jun-17 21:27N 34°10' W 119°42'5 9.5
2018-Jun-17 20:59N 34°09' W 119°37'5 9.5
2018-Jun-17 20:29N 34°08' W 119°31'5 9.8
2018-Jun-17 20:00N 34°07' W 119°26'510.1
2018-Jun-17 19:30N 34°05' W 119°20'5 9.9
2018-Jun-17 19:00N 34°04' W 119°14'510.5
2018-Jun-17 18:30N 34°01' W 119°09'510.3
2018-Jun-17 17:58N 33°58' W 119°03'510.1
2018-Jun-17 17:29N 33°56' W 118°58'510.2
2018-Jun-17 17:00N 33°53' W 118°53'510.3
2018-Jun-17 16:30N 33°51' W 118°47'510.6
2018-Jun-17 16:00N 33°48' W 118°42'510.5
2018-Jun-17 15:30N 33°46' W 118°36'510.5
2018-Jun-17 15:00N 33°43' W 118°31'510.6
2018-Jun-17 14:30N 33°40' W 118°25'510.0
2018-Jun-17 13:59N 33°38' W 118°19'510.2
2018-Jun-17 13:30N 33°38' W 118°14'4 8.2
2018-Jun-17 13:00N 33°42' W 118°11'2 4.3
2018-Jun-17 12:30N 33°44' W 118°11'0 0.8
2018-Jun-17 12:00N 33°44' W 118°11'0 0.0
2018-Jun-17 11:29N 33°44' W 118°11'0 0.0
2018-Jun-17 10:59N 33°44' W 118°11'0 0.0
2018-Jun-17 10:26N 33°44' W 118°11'0 0.0
2018-Jun-17 09:59N 33°44' W 118°11'0 0.0
2018-Jun-17 09:29N 33°44' W 118°11'0 0.0
2018-Jun-17 08:59N 33°44' W 118°11'0 0.0
2018-Jun-17 08:29N 33°44' W 118°11'0 0.0
2018-Jun-17 07:59N 33°44' W 118°11'0 0.0
2018-Jun-17 07:29N 33°44' W 118°11'0 0.0
2018-Jun-17 06:59N 33°44' W 118°11'0 0.0
2018-Jun-17 06:29N 33°44' W 118°11'0 0.0
2018-Jun-17 05:59N 33°44' W 118°11'0 0.0
2018-Jun-17 05:29N 33°44' W 118°11'0 0.0
2018-Jun-17 04:59N 33°44' W 118°11'0 0.0
2018-Jun-17 04:29N 33°44' W 118°11'0 0.0
2018-Jun-17 03:59N 33°44' W 118°11'0 0.0
2018-Jun-17 03:29N 33°44' W 118°11'0 0.0
2018-Jun-17 02:59N 33°44' W 118°11'0 0.0
2018-Jun-17 02:29N 33°44' W 118°11'0 0.0
2018-Jun-17 01:59N 33°44' W 118°11'0 0.0
2018-Jun-17 01:29N 33°44' W 118°11'0 0.0
2018-Jun-17 00:56N 33°44' W 118°11'0 0.0
2018-Jun-17 00:29N 33°44' W 118°11'0 0.0
2018-Jun-16 23:59N 33°44' W 118°11'0 0.0
2018-Jun-16 23:29N 33°44' W 118°11'0 0.0
2018-Jun-16 22:59N 33°44' W 118°11'0 0.0
2018-Jun-16 22:29N 33°44' W 118°11'0 0.0
2018-Jun-16 21:59N 33°44' W 118°11'0 0.0
2018-Jun-16 21:26N 33°44' W 118°11'0 0.0
2018-Jun-16 20:59N 33°44' W 118°11'0 0.0
2018-Jun-16 20:29N 33°44' W 118°11'0 0.0
2018-Jun-16 19:59N 33°44' W 118°11'0 0.0
2018-Jun-16 19:29N 33°44' W 118°11'0 0.0
2018-Jun-16 18:59N 33°44' W 118°11'0 0.0
2018-Jun-16 18:29N 33°44' W 118°11'0 0.0
2018-Jun-16 17:59N 33°44' W 118°11'0 0.0
2018-Jun-16 17:26N 33°44' W 118°11'0 0.0
2018-Jun-16 16:59N 33°44' W 118°11'0 0.0
2018-Jun-16 16:29N 33°44' W 118°11'0 0.0
2018-Jun-16 15:59N 33°44' W 118°11'0 0.0
2018-Jun-16 15:29N 33°44' W 118°11'0 0.0
2018-Jun-16 14:59N 33°44' W 118°11'0 0.0
2018-Jun-16 14:29N 33°44' W 118°11'0 0.0
2018-Jun-16 13:59N 33°44' W 118°11'0 0.0
2018-Jun-16 13:29N 33°44' W 118°11'0 0.0
2018-Jun-16 12:59N 33°44' W 118°11'0 0.0
2018-Jun-16 12:29N 33°44' W 118°11'0 0.0
2018-Jun-16 11:59N 33°44' W 118°11'0 0.0
2018-Jun-16 11:29N 33°44' W 118°11'0 0.0
2018-Jun-16 10:59N 33°44' W 118°11'0 0.0
2018-Jun-16 10:29N 33°44' W 118°11'0 0.0
2018-Jun-16 09:59N 33°44' W 118°11'0 0.0
2018-Jun-16 09:29N 33°44' W 118°11'0 0.0
2018-Jun-16 08:56N 33°44' W 118°11'0 0.0
2018-Jun-16 08:29N 33°44' W 118°11'0 0.0
2018-Jun-16 07:59N 33°44' W 118°11'0 0.0
2018-Jun-16 07:29N 33°44' W 118°11'0 0.0
2018-Jun-16 06:59N 33°44' W 118°11'0 0.0
2018-Jun-16 06:29N 33°44' W 118°11'0 0.0
2018-Jun-16 05:59N 33°44' W 118°11'0 0.0
2018-Jun-16 05:29N 33°44' W 118°11'0 0.0
2018-Jun-16 04:59N 33°44' W 118°11'0 0.0
2018-Jun-16 04:29N 33°44' W 118°11'0 0.0
2018-Jun-16 03:59N 33°44' W 118°11'0 0.0
2018-Jun-16 03:29N 33°44' W 118°11'0 0.0
2018-Jun-16 02:59N 33°44' W 118°11'0 0.0
2018-Jun-16 02:29N 33°44' W 118°11'0 0.0
2018-Jun-16 01:59N 33°44' W 118°11'0 0.0
2018-Jun-16 01:29N 33°44' W 118°11'0 0.0
2018-Jun-16 00:59N 33°44' W 118°11'0 0.1
2018-Jun-16 00:29N 33°44' W 118°12'0 0.0
2018-Jun-15 23:59N 33°44' W 118°12'0 0.1
2018-Jun-15 23:29N 33°44' W 118°11'0 0.0
2018-Jun-15 22:59N 33°44' W 118°11'0 0.0
2018-Jun-15 22:29N 33°44' W 118°11'0 0.0
2018-Jun-15 21:59N 33°44' W 118°11'0 0.0
2018-Jun-15 21:29N 33°44' W 118°11'0 0.0
2018-Jun-15 20:59N 33°44' W 118°11'0 0.1
2018-Jun-15 20:29N 33°44' W 118°12'0 0.1
2018-Jun-15 19:59N 33°44' W 118°11'0 0.0
2018-Jun-15 19:29N 33°44' W 118°11'0 0.0
2018-Jun-15 18:59N 33°44' W 118°11'0 0.0
2018-Jun-15 18:29N 33°44' W 118°11'0 0.0
2018-Jun-15 17:38N 33°44' W 118°11'0 0.0
2018-Jun-15 17:29N 33°44' W 118°11'0 0.0
2018-Jun-15 16:59N 33°44' W 118°11'0 0.1
2018-Jun-15 16:29N 33°44' W 118°12'0 0.1
2018-Jun-15 15:59N 33°44' W 118°11'0 0.0
2018-Jun-15 15:29N 33°44' W 118°11'0 0.0
2018-Jun-15 14:59N 33°44' W 118°11'0 0.0
2018-Jun-15 14:29N 33°44' W 118°11'0 0.0
2018-Jun-15 13:59N 33°44' W 118°11'0 0.0
2018-Jun-15 13:29N 33°44' W 118°11'0 0.0
2018-Jun-15 12:59N 33°44' W 118°11'0 0.0
2018-Jun-15 12:29N 33°44' W 118°11'0 0.0
2018-Jun-15 11:59N 33°44' W 118°11'0 0.0
2018-Jun-15 11:29N 33°44' W 118°11'0 0.0
2018-Jun-15 10:59N 33°44' W 118°11'0 0.0
2018-Jun-15 10:29N 33°44' W 118°11'0 0.0
2018-Jun-15 09:59N 33°44' W 118°11'0 0.0
2018-Jun-15 09:29N 33°44' W 118°11'0 0.0
2018-Jun-15 08:59N 33°44' W 118°11'0 0.0
2018-Jun-15 08:29N 33°44' W 118°11'0 0.0
2018-Jun-15 07:59N 33°44' W 118°11'0 0.0
2018-Jun-15 07:23N 33°44' W 118°11'0 0.0
2018-Jun-15 06:59N 33°44' W 118°11'0 0.0
2018-Jun-15 06:23N 33°44' W 118°11'0 0.0
2018-Jun-15 05:59N 33°44' W 118°11'0 0.0
2018-Jun-15 05:29N 33°44' W 118°11'0 0.0
2018-Jun-15 04:59N 33°44' W 118°11'0 0.0
2018-Jun-15 04:26N 33°44' W 118°11'0 0.0
2018-Jun-15 03:59N 33°44' W 118°11'0 0.0
2018-Jun-15 03:29N 33°44' W 118°11'0 0.0
2018-Jun-15 02:59N 33°44' W 118°11'0 0.0
2018-Jun-15 02:29N 33°44' W 118°11'0 0.0
2018-Jun-15 01:59N 33°44' W 118°11'0 0.0
2018-Jun-15 01:29N 33°44' W 118°11'0 0.0
2018-Jun-15 00:56N 33°44' W 118°11'0 0.0
2018-Jun-15 00:29N 33°44' W 118°11'0 0.0
2018-Jun-14 23:59N 33°44' W 118°11'0 0.0
2018-Jun-14 23:29N 33°44' W 118°11'0 0.0
2018-Jun-14 22:59N 33°44' W 118°11'0 0.0
2018-Jun-14 22:29N 33°44' W 118°11'0 0.0
2018-Jun-14 21:59N 33°44' W 118°11'0 0.0
2018-Jun-14 21:29N 33°44' W 118°11'0 0.0
2018-Jun-14 20:59N 33°44' W 118°11'0 0.1
2018-Jun-14 20:29N 33°44' W 118°12'0 0.1
2018-Jun-14 19:59N 33°44' W 118°11'0 0.0
2018-Jun-14 19:29N 33°44' W 118°11'0 0.0
2018-Jun-14 18:59N 33°44' W 118°11'0 0.0
2018-Jun-14 18:29N 33°44' W 118°11'0 0.0
2018-Jun-14 17:59N 33°44' W 118°11'0 0.0
2018-Jun-14 17:29N 33°44' W 118°11'0 0.0
2018-Jun-14 16:59N 33°44' W 118°11'0 0.0
2018-Jun-14 16:29N 33°44' W 118°11'0 0.0
2018-Jun-14 15:59N 33°44' W 118°11'0 0.0
2018-Jun-14 15:29N 33°44' W 118°11'0 0.0
2018-Jun-14 14:59N 33°44' W 118°11'0 0.0
2018-Jun-14 14:29N 33°44' W 118°11'0 0.0
2018-Jun-14 13:59N 33°44' W 118°11'0 0.0
2018-Jun-14 13:29N 33°44' W 118°11'0 0.0
2018-Jun-14 12:59N 33°44' W 118°11'0 0.0
2018-Jun-14 12:29N 33°44' W 118°11'0 0.1
2018-Jun-14 11:59N 33°44' W 118°12'0 0.1
2018-Jun-14 11:29N 33°44' W 118°11'0 0.0
2018-Jun-14 10:59N 33°44' W 118°11'0 0.0
2018-Jun-14 10:29N 33°44' W 118°11'0 0.0
2018-Jun-14 09:59N 33°44' W 118°11'0 0.0
2018-Jun-14 09:29N 33°44' W 118°11'0 0.0
2018-Jun-14 08:59N 33°44' W 118°11'0 0.0
2018-Jun-14 08:29N 33°44' W 118°11'0 0.0
2018-Jun-14 07:59N 33°44' W 118°11'0 0.0
2018-Jun-14 07:29N 33°44' W 118°11'0 0.0
2018-Jun-14 06:59N 33°44' W 118°11'0 0.0
2018-Jun-14 06:29N 33°44' W 118°11'0 0.0
2018-Jun-14 05:59N 33°44' W 118°11'0 0.0
2018-Jun-14 05:26N 33°44' W 118°11'0 0.0
2018-Jun-14 04:59N 33°44' W 118°11'0 0.0
2018-Jun-14 04:29N 33°44' W 118°11'0 0.0
2018-Jun-14 03:53N 33°44' W 118°11'0 0.0
2018-Jun-14 03:29N 33°44' W 118°11'0 0.0
2018-Jun-14 02:56N 33°44' W 118°11'0 0.0
2018-Jun-14 02:29N 33°44' W 118°11'0 0.0
2018-Jun-14 01:59N 33°44' W 118°11'0 0.0
2018-Jun-14 01:29N 33°44' W 118°11'0 0.0
2018-Jun-14 00:59N 33°44' W 118°11'0 0.0
2018-Jun-14 00:29N 33°44' W 118°11'0 0.0
2018-Jun-13 23:59N 33°44' W 118°11'0 0.0
2018-Jun-13 23:29N 33°44' W 118°11'0 0.0
2018-Jun-13 22:59N 33°44' W 118°11'0 0.0
2018-Jun-13 22:29N 33°44' W 118°11'0 0.0
2018-Jun-13 21:59N 33°44' W 118°11'0 0.0
2018-Jun-13 21:29N 33°44' W 118°11'0 0.0
2018-Jun-13 20:59N 33°44' W 118°11'0 0.0
2018-Jun-13 20:29N 33°44' W 118°11'0 0.0
2018-Jun-13 19:56N 33°44' W 118°11'0 0.0
2018-Jun-13 19:29N 33°44' W 118°11'0 0.0
2018-Jun-13 18:59N 33°44' W 118°11'0 0.0
2018-Jun-13 18:29N 33°44' W 118°11'0 0.0
2018-Jun-13 17:59N 33°44' W 118°11'0 0.0
2018-Jun-13 17:29N 33°44' W 118°11'0 0.0
2018-Jun-13 16:59N 33°44' W 118°11'0 0.0
2018-Jun-13 16:26N 33°44' W 118°11'0 0.0
2018-Jun-13 15:59N 33°44' W 118°11'0 0.0
2018-Jun-13 15:29N 33°44' W 118°11'0 0.0
2018-Jun-13 14:59N 33°44' W 118°11'0 0.0
2018-Jun-13 14:29N 33°44' W 118°11'0 0.0
2018-Jun-13 13:59N 33°44' W 118°11'0 0.0
2018-Jun-13 13:29N 33°44' W 118°11'0 0.0
2018-Jun-13 12:59N 33°44' W 118°11'0 0.0
2018-Jun-13 12:29N 33°44' W 118°11'0 0.0
2018-Jun-13 11:59N 33°44' W 118°11'0 0.0
2018-Jun-13 11:29N 33°44' W 118°11'0 0.0
2018-Jun-13 10:59N 33°44' W 118°11'0 0.0
2018-Jun-13 10:29N 33°44' W 118°11'0 0.0
2018-Jun-13 09:59N 33°44' W 118°11'0 0.0
2018-Jun-13 09:29N 33°44' W 118°11'0 0.0
2018-Jun-13 08:59N 33°44' W 118°11'0 0.0
2018-Jun-13 08:29N 33°44' W 118°11'0 0.0
2018-Jun-13 07:59N 33°44' W 118°11'0 0.0
2018-Jun-13 07:29N 33°44' W 118°11'0 0.0
2018-Jun-13 06:59N 33°44' W 118°11'0 0.0
2018-Jun-13 06:29N 33°44' W 118°11'0 0.0
2018-Jun-13 05:59N 33°44' W 118°11'0 0.0
2018-Jun-13 05:29N 33°44' W 118°11'0 0.0
2018-Jun-13 04:59N 33°44' W 118°11'0 0.0
2018-Jun-13 04:26N 33°44' W 118°11'0 0.0
2018-Jun-13 03:59N 33°44' W 118°11'0 0.0
2018-Jun-13 03:26N 33°44' W 118°11'0 0.0
2018-Jun-13 02:59N 33°44' W 118°11'0 0.0
2018-Jun-13 02:29N 33°44' W 118°11'0 0.0
2018-Jun-13 01:59N 33°44' W 118°11'0 0.1
2018-Jun-13 01:29N 33°44' W 118°12'0 0.1
2018-Jun-13 00:59N 33°44' W 118°11'0 0.0
2018-Jun-13 00:29N 33°44' W 118°11'0 0.0
2018-Jun-12 23:59N 33°44' W 118°11'0 0.0
2018-Jun-12 23:29N 33°44' W 118°11'0 0.0
2018-Jun-12 22:59N 33°44' W 118°11'0 0.0
2018-Jun-12 22:29N 33°44' W 118°11'0 0.0
2018-Jun-12 21:59N 33°44' W 118°11'0 0.0
2018-Jun-12 21:29N 33°44' W 118°11'0 0.0
2018-Jun-12 20:59N 33°44' W 118°11'0 0.0
2018-Jun-12 20:29N 33°44' W 118°11'0 0.0
2018-Jun-12 19:56N 33°44' W 118°11'0 0.0
2018-Jun-12 19:29N 33°44' W 118°11'0 0.0
2018-Jun-12 18:59N 33°44' W 118°11'0 0.0
2018-Jun-12 18:29N 33°44' W 118°11'0 0.0
2018-Jun-12 17:59N 33°44' W 118°11'0 0.0
2018-Jun-12 17:29N 33°44' W 118°11'0 0.0
2018-Jun-12 16:59N 33°44' W 118°11'0 0.0
2018-Jun-12 16:29N 33°44' W 118°11'0 0.0
2018-Jun-12 15:59N 33°44' W 118°11'0 0.0
2018-Jun-12 15:29N 33°44' W 118°11'0 0.0
2018-Jun-12 14:59N 33°44' W 118°11'0 0.0
2018-Jun-12 14:29N 33°44' W 118°11'0 0.0
2018-Jun-12 13:59N 33°44' W 118°11'0 0.0
2018-Jun-12 13:29N 33°44' W 118°11'0 0.0
2018-Jun-12 12:56N 33°44' W 118°11'0 0.0
2018-Jun-12 12:29N 33°44' W 118°11'0 0.0
2018-Jun-12 11:59N 33°44' W 118°11'0 0.0
2018-Jun-12 11:29N 33°44' W 118°11'0 0.0
2018-Jun-12 10:59N 33°44' W 118°11'0 0.0
2018-Jun-12 10:29N 33°44' W 118°11'0 0.0
2018-Jun-12 09:59N 33°44' W 118°11'0 0.1
2018-Jun-12 09:29N 33°44' W 118°12'0 0.1
2018-Jun-12 08:59N 33°44' W 118°11'0 0.0
2018-Jun-12 08:29N 33°44' W 118°11'0 0.1
2018-Jun-12 07:59N 33°44' W 118°12'0 0.1
2018-Jun-12 07:29N 33°44' W 118°11'0 0.1
2018-Jun-12 06:56N 33°44' W 118°12'0 0.1
2018-Jun-12 06:29N 33°44' W 118°11'0 0.1
2018-Jun-12 05:59N 33°44' W 118°12'0 0.1
2018-Jun-12 05:29N 33°44' W 118°11'0 0.0
2018-Jun-12 04:59N 33°44' W 118°11'0 0.1
2018-Jun-12 04:26N 33°44' W 118°12'0 0.0
2018-Jun-12 03:59N 33°44' W 118°12'0 0.0
2018-Jun-12 03:29N 33°44' W 118°12'0 0.1
2018-Jun-12 02:59N 33°44' W 118°11'0 0.1
2018-Jun-12 02:26N 33°44' W 118°12'0 0.0
2018-Jun-12 01:59N 33°44' W 118°12'0 0.1
2018-Jun-12 01:29N 33°44' W 118°11'0 0.1
2018-Jun-12 00:59N 33°44' W 118°12'0 0.1
2018-Jun-12 00:29N 33°44' W 118°11'0 0.0
2018-Jun-11 23:59N 33°44' W 118°11'0 0.1
2018-Jun-11 23:29N 33°44' W 118°12'0 0.0
2018-Jun-11 22:59N 33°44' W 118°12'0 0.0
2018-Jun-11 22:29N 33°44' W 118°12'0 0.0
2018-Jun-11 21:59N 33°44' W 118°12'0 0.0
2018-Jun-11 21:29N 33°44' W 118°12'0 0.0
2018-Jun-11 20:59N 33°44' W 118°12'0 0.0
2018-Jun-11 20:29N 33°44' W 118°12'0 0.1
2018-Jun-11 19:59N 33°44' W 118°11'0 0.0
2018-Jun-11 19:29N 33°44' W 118°11'0 0.0
2018-Jun-11 18:59N 33°44' W 118°11'0 0.0
2018-Jun-11 18:29N 33°44' W 118°11'0 0.1
2018-Jun-11 17:59N 33°44' W 118°12'0 0.0
2018-Jun-11 17:29N 33°44' W 118°12'0 0.1
2018-Jun-11 16:59N 33°44' W 118°11'0 0.1
2018-Jun-11 16:29N 33°44' W 118°12'0 0.0
2018-Jun-11 15:59N 33°44' W 118°12'0 0.1
2018-Jun-11 15:29N 33°44' W 118°11'0 0.0
2018-Jun-11 14:59N 33°44' W 118°11'0 0.0
2018-Jun-11 14:29N 33°44' W 118°11'0 0.0
2018-Jun-11 13:59N 33°44' W 118°11'0 0.0
2018-Jun-11 13:29N 33°44' W 118°11'0 0.0
2018-Jun-11 12:59N 33°44' W 118°11'0 0.0
2018-Jun-11 12:29N 33°44' W 118°11'0 0.1
2018-Jun-11 11:59N 33°44' W 118°12'0 0.1
2018-Jun-11 11:29N 33°44' W 118°11'0 0.0
2018-Jun-11 10:59N 33°44' W 118°11'0 0.0
2018-Jun-11 10:29N 33°44' W 118°11'0 0.0
2018-Jun-11 09:59N 33°44' W 118°11'0 0.0
2018-Jun-11 09:29N 33°44' W 118°11'0 0.0
2018-Jun-11 08:59N 33°44' W 118°11'0 0.0
2018-Jun-11 08:29N 33°44' W 118°11'0 0.0
2018-Jun-11 07:59N 33°44' W 118°11'0 0.0
2018-Jun-11 07:29N 33°44' W 118°11'0 0.0
2018-Jun-11 06:59N 33°44' W 118°11'0 0.0
2018-Jun-11 06:29N 33°44' W 118°11'0 0.0
2018-Jun-11 05:59N 33°44' W 118°11'0 0.1
2018-Jun-11 05:29N 33°44' W 118°12'0 0.1
2018-Jun-11 04:59N 33°44' W 118°11'0 0.0
2018-Jun-11 04:29N 33°44' W 118°11'0 0.1
2018-Jun-11 03:59N 33°44' W 118°12'0 0.0
2018-Jun-11 03:26N 33°44' W 118°12'0 0.0
2018-Jun-11 02:59N 33°44' W 118°12'0 0.1
2018-Jun-11 02:29N 33°44' W 118°11'0 0.1
2018-Jun-11 01:59N 33°44' W 118°12'0 0.1
2018-Jun-11 01:29N 33°44' W 118°11'0 0.0
2018-Jun-11 00:59N 33°44' W 118°11'0 0.1
2018-Jun-11 00:29N 33°44' W 118°12'0 0.0
2018-Jun-10 23:59N 33°44' W 118°12'0 0.1
2018-Jun-10 23:29N 33°44' W 118°11'0 0.0
2018-Jun-10 22:59N 33°44' W 118°11'0 0.0
2018-Jun-10 22:29N 33°44' W 118°11'0 0.0
2018-Jun-10 21:59N 33°44' W 118°11'0 0.0
2018-Jun-10 21:29N 33°44' W 118°11'0 0.0
2018-Jun-10 20:59N 33°44' W 118°11'0 0.0
2018-Jun-10 20:29N 33°44' W 118°11'0 0.0
2018-Jun-10 19:59N 33°44' W 118°11'0 0.1
2018-Jun-10 19:30N 33°44' W 118°11'1 1.2
2018-Jun-10 19:01N 33°44' W 118°11'3 5.8
2018-Jun-10 18:30N 33°41' W 118°11'4 8.8
2018-Jun-10 18:00N 33°37' W 118°13'4 8.7
2018-Jun-10 17:30N 33°36' W 118°18'4 8.5
2018-Jun-10 16:59N 33°37' W 118°23'4 9.3
2018-Jun-10 16:30N 33°39' W 118°28'5 9.2
2018-Jun-10 16:00N 33°42' W 118°32'6 9.4
2018-Jun-10 15:19N 33°45' W 118°39'3 9.6
2018-Jun-10 15:00N 33°46' W 118°42'5 9.6
2018-Jun-10 14:30N 33°49' W 118°47'9 9.5
2018-Jun-10 13:30N 33°53' W 118°57'5 9.4
2018-Jun-10 13:00N 33°56' W 119°02'5 9.6
2018-Jun-10 12:30N 33°58' W 119°07'5 9.8
2018-Jun-10 11:59N 34°01' W 119°12'5 9.2
2018-Jun-10 11:30N 34°02' W 119°17'6 9.6
2018-Jun-10 10:52N 34°04' W 119°24'4 9.3
2018-Jun-10 10:23N 34°06' W 119°30'4 9.4
2018-Jun-10 10:00N 34°07' W 119°34'5 9.7
2018-Jun-10 09:29N 34°08' W 119°40'5 9.5
2018-Jun-10 09:00N 34°09' W 119°45'5 9.5
2018-Jun-10 08:29N 34°10' W 119°51'5 9.8
2018-Jun-10 07:57N 34°11' W 119°57'510.2
2018-Jun-10 07:29N 34°13' W 120°02'510.0
2018-Jun-10 07:00N 34°14' W 120°08'6 9.7
2018-Jun-10 06:26N 34°16' W 120°14'5 9.6
2018-Jun-10 05:57N 34°17' W 120°20'510.1
2018-Jun-10 05:28N 34°18' W 120°25'5 9.6
2018-Jun-10 05:00N 34°19' W 120°31'6 9.8
2018-Jun-10 04:22N 34°21' W 120°38'410.0
2018-Jun-10 04:00N 34°22' W 120°42'5 9.6
2018-Jun-10 03:29N 34°23' W 120°48'510.0
2018-Jun-10 03:00N 34°25' W 120°54'5 9.8
2018-Jun-10 02:30N 34°25' W 120°59'5 9.6
2018-Jun-10 02:00N 34°25' W 121°05'510.0
2018-Jun-10 01:30N 34°24' W 121°11'1019.3
2018-Jun-10 01:00N 34°24' W 121°23'1019.3
2018-Jun-10 00:30N 34°25' W 121°35'1019.0
2018-Jun-09 23:57N 34°25' W 121°47'919.3
2018-Jun-09 23:30N 34°24' W 121°58'919.4
2018-Jun-09 23:00N 34°24' W 122°09'1019.4
2018-Jun-09 22:31N 34°25' W 122°21'1019.7
2018-Jun-09 22:00N 34°25' W 122°33'  

Dump ship's entire track history